Time;durP1;ratioP1;P1;durP2;ratioP2;P2;SDS_P1;SDS_P2;PMS_P1;PMS_P2;Temp;Humidity;BMP_temperature;BMP_pressure;BME280_temperature;BME280_humidity;BME280_pressure;Samples;Min_cycle;Max_cycle;Signal;HPM_P1;HPM_P2
2022/05/09 00:02:57;;;;;;;3.75;2.20;;;20.30;36.50;;;;;;21004847;28;20075;-69
2022/05/09 00:12:59;;;;;;;3.55;1.83;;;20.20;36.90;;;;;;21003601;28;20052;-71
2022/05/09 00:23:00;;;;;;;3.92;2.08;;;20.00;37.40;;;;;;21003557;28;20052;-71
2022/05/09 00:33:02;;;;;;;3.72;1.50;;;19.90;37.90;;;;;;21002189;28;20052;-65
2022/05/09 00:43:42;;;;;;;3.55;1.80;;;19.80;38.30;;;;;;21001662;28;20497;-64
2022/05/09 00:53:44;;;;;;;4.13;1.63;;;19.70;38.50;;;;;;21000252;28;20048;-64
2022/05/09 01:04:09;;;;;;;2.38;1.60;;;19.70;39.00;;;;;;21000419;28;20477;-66
2022/05/09 01:14:17;;;;;;;4.35;1.42;;;19.60;39.30;;;;;;20980626;28;20044;-63
2022/05/09 01:24:23;;;;;;;6.45;1.90;;;19.50;39.70;;;;;;20997149;28;20080;-69
2022/05/09 01:34:27;;;;;;;4.53;1.80;;;19.30;40.10;;;;;;20998129;28;20131;-68
2022/05/09 01:44:30;;;;;;;3.08;1.77;;;19.20;40.50;;;;;;20996901;28;20055;-70
2022/05/09 01:54:34;;;;;;;4.25;1.55;;;19.00;40.80;;;;;;20997259;28;20464;-65
2022/05/09 02:04:40;;;;;;;2.83;1.63;;;18.90;40.90;;;;;;20996780;28;20056;-70
2022/05/09 02:14:44;;;;;;;2.97;1.77;;;18.90;41.20;;;;;;20996291;28;20080;-72
2022/05/09 02:24:47;;;;;;;4.90;2.00;;;18.70;41.60;;;;;;20995023;28;20052;-72
2022/05/09 02:34:50;;;;;;;3.43;2.23;;;18.70;41.80;;;;;;21000074;28;20493;-73
2022/05/09 02:44:54;;;;;;;4.38;2.42;;;18.60;42.00;;;;;;21010700;28;20052;-72
2022/05/09 02:54:57;;;;;;;7.20;1.70;;;18.60;42.30;;;;;;21009769;28;20079;-71
2022/05/09 03:05:00;;;;;;;4.03;1.90;;;18.40;42.60;;;;;;20995063;28;20477;-71
2022/05/09 03:15:03;;;;;;;3.47;1.48;;;18.30;42.30;;;;;;21008237;28;20507;-73
2022/05/09 03:25:06;;;;;;;5.13;2.13;;;18.20;42.80;;;;;;21007662;28;20484;-70
2022/05/09 03:35:09;;;;;;;3.83;1.97;;;18.20;43.50;;;;;;20989729;28;20049;-65
2022/05/09 03:45:12;;;;;;;3.83;2.00;;;17.90;44.30;;;;;;21007140;28;20395;-73
2022/05/09 03:55:14;;;;;;;4.72;2.25;;;17.70;44.90;;;;;;21005341;28;20467;-71
2022/05/09 04:05:17;;;;;;;3.22;1.80;;;17.70;45.20;;;;;;21004924;28;20049;-72
2022/05/09 04:25:40;;;;;;;5.70;2.70;;;17.40;46.20;;;;;;21002828;28;20568;-72
2022/05/09 04:35:42;;;;;;;2.65;1.80;;;17.20;46.40;;;;;;20984356;28;20083;-71
2022/05/09 04:45:44;;;;;;;3.60;2.10;;;17.00;47.10;;;;;;21001859;28;20052;-74
2022/05/09 04:55:47;;;;;;;5.80;2.50;;;16.90;47.60;;;;;;20981482;28;20461;-72
2022/05/09 05:05:52;;;;;;;4.72;1.75;;;16.90;47.90;;;;;;21004004;28;20044;-65
2022/05/09 05:15:57;;;;;;;6.13;2.90;;;16.70;48.30;;;;;;20998274;28;20048;-70
2022/05/09 05:26:00;;;;;;;4.93;2.95;;;16.70;48.20;;;;;;20998701;28;20049;-71
2022/05/09 05:36:02;;;;;;;3.90;2.50;;;16.70;48.60;;;;;;20997921;28;20090;-73
2022/05/09 05:46:03;;;;;;;5.55;2.65;;;16.70;48.30;;;;;;20996495;28;20405;-67
2022/05/09 05:56:05;;;;;;;7.20;3.28;;;16.90;48.00;;;;;;20996649;28;20075;-71
2022/05/09 06:06:06;;;;;;;7.28;3.08;;;17.00;48.00;;;;;;20996460;28;20051;-70
2022/05/09 06:16:08;;;;;;;11.65;3.85;;;17.00;49.40;;;;;;20995987;28;20056;-70
2022/05/09 06:26:14;;;;;;;12.40;3.65;;;17.00;49.70;;;;;;20996041;28;20501;-73
2022/05/09 06:36:16;;;;;;;5.82;3.10;;;17.10;49.50;;;;;;20994996;28;20053;-73
2022/05/09 06:46:17;;;;;;;9.43;2.67;;;17.50;47.40;;;;;;20996404;28;20103;-73
2022/05/09 06:56:19;;;;;;;5.55;2.85;;;18.20;44.50;;;;;;20993619;28;20044;-70
2022/05/09 07:06:20;;;;;;;6.35;2.58;;;18.70;43.40;;;;;;20992828;28;20052;-74
2022/05/09 07:16:23;;;;;;;6.07;2.50;;;;;;;;;;20992247;28;20057;-71
2022/05/09 07:26:25;;;;;;;6.97;3.00;;;;;;;;;;21006853;28;20056;-72
2022/05/09 07:36:28;;;;;;;5.93;3.30;;;;;;;;;;21008575;28;20040;-66
2022/05/09 07:46:30;;;;;;;10.60;3.80;;;;;;;;;;21007909;28;20052;-73
2022/05/09 07:56:33;;;;;;;;;;;;;;;;;;21005152;28;20055;-69
2022/05/09 08:06:35;;;;;;;6.45;3.20;;;;;;;;;;21004650;28;20469;-67
2022/05/09 08:16:38;;;;;;;10.43;2.67;;;;;;;;;;21002151;28;20048;-69
2022/05/09 08:26:42;;;;;;;7.18;3.67;;;;;;;;;;21002248;28;20049;-72
2022/05/09 08:36:53;;;;;;;8.40;3.13;;;;;;;;;;21002495;28;20095;-72
2022/05/09 08:46:58;;;;;;;10.48;3.80;;;;;;;;;;20998031;28;20135;-73
2022/05/09 08:57:03;;;;;;;8.98;3.63;;;;;;;;;;20999996;28;20044;-74
2022/05/09 09:07:18;;;;;;;5.93;2.47;;;;;;;;;;20999510;28;20105;-69
2022/05/09 09:17:48;;;;;;;7.03;2.78;;;;;;;;;;20998342;28;20074;-68
2022/05/09 09:27:54;;;;;;;8.48;2.13;;;;;;;;;;20998412;28;20397;-67
2022/05/09 09:37:58;;;;;;;4.10;2.58;;;;;;;;;;20996032;28;20044;-70
2022/05/09 09:48:12;;;;;;;4.93;2.65;;;;;;;;;;20995139;28;20087;-66
2022/05/09 09:58:21;;;;;;;13.15;4.10;;;;;;;;;;20996495;28;20053;-64
2022/05/09 10:08:26;;;;;;;10.75;2.50;;;;;;;;;;20995397;28;20417;-64
2022/05/09 10:18:31;;;;;;;7.78;3.55;;;;;;;;;;20968159;28;20052;-74
2022/05/09 10:28:37;;;;;;;6.70;2.70;;;23.80;36.30;;;;;;20995582;28;20084;-63
2022/05/09 10:38:43;;;;;;;6.22;3.28;;;;;;;;;;20994144;28;20147;-64
2022/05/09 10:49:05;;;;;;;8.57;3.00;;;;;;;;;;20992503;28;20060;-69
2022/05/09 10:59:20;;;;;;;8.70;2.80;;;;;;;;;;21003748;28;20048;-71
2022/05/09 11:09:30;;;;;;;8.90;3.00;;;;;;;;;;21008131;28;20059;-69
2022/05/09 11:19:36;;;;;;;6.10;2.80;;;;;;;;;;21007592;28;20044;-64
2022/05/09 11:29:37;;;;;;;6.40;2.85;;;;;;;;;;21007117;28;20122;-66
2022/05/09 11:39:40;;;;;;;6.87;2.30;;;;;;;;;;21006990;28;20178;-64
2022/05/09 11:49:41;;;;;;;6.43;3.13;;;;;;;;;;21005441;28;20501;-65
2022/05/09 11:59:52;;;;;;;5.37;2.43;;;;;;;;;;21003239;28;20123;-64
2022/05/09 12:09:54;;;;;;;4.97;2.60;;;;;;;;;;21003778;28;20096;-68
2022/05/09 12:19:56;;;;;;;6.68;2.50;;;;;;;;;;21004359;28;20056;-68
2022/05/09 12:29:58;;;;;;;5.97;2.55;;;;;;;;;;21002358;28;20044;-67
2022/05/09 12:40:00;;;;;;;8.48;2.78;;;;;;;;;;21000747;28;20431;-68
2022/05/09 12:50:07;;;;;;;7.75;2.90;;;;;;;;;;21000003;28;20045;-66
2022/05/09 13:00:12;;;;;;;6.53;3.58;;;;;;;;;;20999316;28;20056;-67
2022/05/09 13:10:16;;;;;;;7.82;2.90;;;;;;;;;;20998471;28;20082;-67
2022/05/09 13:20:20;;;;;;;4.30;2.03;;;;;;;;;;20997048;28;20054;-70
2022/05/09 13:30:22;;;;;;;4.38;2.28;;;;;;;;;;20996774;28;20048;-68
2022/05/09 13:40:24;;;;;;;4.70;2.65;;;;;;;;;;20996922;28;20052;-67
2022/05/09 13:50:42;;;;;;;3.97;2.58;;;;;;;;;;20996210;28;20048;-66
2022/05/09 14:00:49;;;;;;;4.88;1.92;;;;;;;;;;20996492;28;20417;-66
2022/05/09 14:11:00;;;;;;;3.65;1.85;;;;;;;;;;20993001;28;20135;-65
2022/05/09 14:21:05;;;;;;;5.15;2.33;;;;;;;;;;20993464;28;20101;-67
2022/05/09 14:31:23;;;;;;;5.00;2.60;;;;;;;;;;21002098;28;20048;-67
2022/05/09 14:41:36;;;;;;;6.78;2.45;;;;;;;;;;21010775;28;20059;-59
2022/05/09 14:51:38;;;;;;;5.88;2.17;;;;;;;;;;21010402;28;20054;-67
2022/05/09 15:01:54;;;;;;;3.50;1.88;;;;;;;;;;21008978;28;20059;-65
2022/05/09 15:11:58;;;;;;;5.28;2.40;;;;;;;;;;21008401;28;20052;-68
2022/05/09 15:22:00;;;;;;;7.03;3.17;;;;;;;;;;21008780;28;20097;-64
2022/05/09 15:32:02;;;;;;;5.53;2.13;;;;;;;;;;21005088;28;20048;-65
2022/05/09 15:42:04;;;;;;;2.92;1.98;;;;;;;;;;20973246;28;20049;-66
2022/05/09 15:52:06;;;;;;;9.00;2.42;;;27.10;28.80;;;;;;21004562;28;20059;-70
2022/05/09 16:02:09;;;;;;;2.95;1.80;;;27.00;29.00;;;;;;20986477;28;20048;-65
2022/05/09 16:12:14;;;;;;;4.68;2.13;;;;;;;;;;21004049;28;20052;-66
2022/05/09 16:22:20;;;;;;;5.00;2.58;;;;;;;;;;21003587;28;20488;-62
2022/05/09 16:32:22;;;;;;;3.22;1.80;;;27.30;29.90;;;;;;21003868;28;20049;-64
2022/05/09 16:42:29;;;;;;;5.53;2.58;;;27.50;29.20;;;;;;21002020;28;20052;-59
2022/05/09 16:52:31;;;;;;;5.13;2.17;;;27.60;29.30;;;;;;20999998;28;20056;-60
2022/05/09 17:02:32;;;;;;;7.95;4.18;;;27.40;29.80;;;;;;20981793;28;20057;-66
2022/05/09 17:12:38;;;;;;;6.75;2.88;;;27.20;30.00;;;;;;20999028;28;20052;-71
2022/05/09 17:22:40;;;;;;;5.03;2.80;;;27.20;30.10;;;;;;20980085;28;20083;-72
2022/05/09 17:32:44;;;;;;;6.10;3.17;;;27.10;30.10;;;;;;20998151;28;20044;-69
2022/05/09 17:42:47;;;;;;;5.20;1.92;;;27.00;30.70;;;;;;20996811;28;20063;-69
2022/05/09 17:52:48;;;;;;;3.17;2.00;;;26.90;30.80;;;;;;20978725;28;20531;-69
2022/05/09 18:02:53;;;;;;;4.43;2.42;;;26.70;30.90;;;;;;20995948;28;20135;-71
2022/05/09 18:12:57;;;;;;;3.58;2.10;;;26.60;31.40;;;;;;20977249;28;20058;-70
2022/05/09 18:23:05;;;;;;;8.00;2.70;;;26.60;31.70;;;;;;20995438;28;20056;-69
2022/05/09 18:33:09;;;;;;;4.47;2.40;;;26.40;32.20;;;;;;20995523;28;20079;-69
2022/05/09 18:43:10;;;;;;;6.10;2.40;;;26.20;32.40;;;;;;20993342;28;20098;-59
2022/05/09 18:53:13;;;;;;;4.18;2.75;;;26.20;32.20;;;;;;20994685;28;20048;-68
2022/05/09 19:03:16;;;;;;;5.47;3.22;;;26.10;32.50;;;;;;20993781;28;20485;-61
2022/05/09 19:13:19;;;;;;;7.57;4.15;;;25.90;33.60;;;;;;20992576;28;20106;-63
2022/05/09 19:23:20;;;;;;;8.02;4.35;;;25.70;34.40;;;;;;21007113;28;20143;-69
2022/05/09 19:33:27;;;;;;;9.40;4.53;;;25.60;34.70;;;;;;20973532;28;20478;-69
2022/05/09 19:43:30;;;;;;;6.13;3.65;;;25.30;35.10;;;;;;20934795;28;20045;-67
2022/05/09 20:03:54;;;;;;;9.65;6.03;;;24.90;35.80;;;;;;20935549;28;20052;-65
2022/05/09 20:13:56;;;;;;;6.78;3.90;;;24.70;36.40;;;;;;20932740;28;20061;-64
2022/05/09 20:23:58;;;;;;;6.93;3.22;;;24.60;36.70;;;;;;20919547;28;20049;-64
2022/05/09 20:33:59;;;;;;;9.03;3.07;;;24.50;35.70;;;;;;20918799;28;20072;-64
2022/05/09 20:44:04;;;;;;;9.03;4.33;;;24.40;34.90;;;;;;20918123;28;20099;-63
2022/05/09 20:54:06;;;;;;;5.43;2.70;;;24.40;34.90;;;;;;20917940;28;20072;-68
2022/05/09 21:04:07;;;;;;;7.22;4.30;;;24.20;35.20;;;;;;20921536;28;20549;-73
2022/05/09 21:14:09;;;;;;;6.90;3.58;;;24.20;34.90;;;;;;20918922;28;20049;-71
2022/05/09 21:24:18;;;;;;;5.10;3.00;;;24.10;34.30;;;;;;20917958;28;20378;-71
2022/05/09 21:34:19;;;;;;;7.85;3.13;;;24.00;32.60;;;;;;20916524;28;20087;-73
2022/05/09 21:44:25;;;;;;;5.35;2.72;;;23.90;32.20;;;;;;20913792;28;20045;-73
2022/05/09 21:54:29;;;;;;;4.68;2.30;;;23.90;30.50;;;;;;20914609;28;20047;-72
2022/05/09 22:04:33;;;;;;;5.95;1.98;;;23.80;27.90;;;;;;20914782;28;20053;-72
2022/05/09 22:14:35;;;;;;;4.07;1.65;;;23.70;27.40;;;;;;20912914;28;20148;-71
2022/05/09 22:24:43;;;;;;;5.03;1.70;;;23.40;27.90;;;;;;20912941;28;20099;-68
2022/05/09 22:34:47;;;;;;;6.05;2.50;;;23.30;28.00;;;;;;20912575;28;20076;-72
2022/05/09 22:44:53;;;;;;;5.80;2.53;;;22.80;33.20;;;;;;20911758;28;20062;-70
2022/05/09 22:54:55;;;;;;;6.28;2.42;;;22.60;34.30;;;;;;20924201;28;20542;-70
2022/05/09 23:04:57;;;;;;;4.13;2.45;;;22.40;33.90;;;;;;20927611;28;20497;-71
2022/05/09 23:14:59;;;;;;;5.10;2.27;;;22.30;34.50;;;;;;20926316;28;20085;-72
2022/05/09 23:25:01;;;;;;;6.45;2.70;;;22.20;34.40;;;;;;20925939;28;20140;-71
2022/05/09 23:35:04;;;;;;;5.93;3.22;;;22.00;38.40;;;;;;20925799;28;20412;-73
2022/05/09 23:45:06;;;;;;;6.03;3.30;;;21.70;42.90;;;;;;20924770;28;20528;-71
2022/05/09 23:55:08;;;;;;;4.07;3.60;;;21.50;45.40;;;;;;20923666;28;20302;-74
